Time;durP1;ratioP1;P1;durP2;ratioP2;P2;SDS_P1;SDS_P2;PMS_P1;PMS_P2;Temp;Humidity;BMP_temperature;BMP_pressure;BME280_temperature;BME280_humidity;BME280_pressure;Samples;Min_cycle;Max_cycle;Signal;HPM_P1;HPM_P2
2023/05/23 00:01:48;;;;;;;13.35;4.80;;;;;;;20.80;61.18;97809.56;4478044;32;20057;-79
2023/05/23 00:04:17;;;;;;;10.52;4.70;;;;;;;20.88;60.32;97818.56;4478214;32;20093;-79
2023/05/23 00:06:49;;;;;;;14.00;5.00;;;;;;;20.87;59.83;97819.53;4478575;32;20103;-79
2023/05/23 00:09:18;;;;;;;9.88;4.62;;;;;;;20.58;60.59;97809.78;4478800;32;20430;-79
2023/05/23 00:11:45;;;;;;;11.40;4.60;;;;;;;21.01;58.50;97819.13;4477984;32;20101;-79
2023/05/23 00:14:15;;;;;;;10.07;4.60;;;;;;;20.45;60.74;97806.59;4477968;32;20110;-79
2023/05/23 00:16:43;;;;;;;12.23;4.80;;;;;;;20.85;59.36;97806.56;4477826;32;20092;-79
2023/05/23 00:19:13;;;;;;;12.18;5.00;;;;;;;20.08;61.87;97804.47;4478312;32;20072;-79
2023/05/23 00:21:47;;;;;;;10.57;4.30;;;;;;;20.34;61.22;97806.66;4464621;32;20115;-79
2023/05/23 00:24:17;;;;;;;9.90;4.45;;;;;;;20.48;60.89;97806.31;4478208;32;20120;-79
2023/05/23 00:26:45;;;;;;;9.68;4.35;;;;;;;20.38;60.59;97813.28;4478073;32;20076;-79
2023/05/23 00:29:15;;;;;;;9.95;4.57;;;;;;;20.19;61.30;97808.78;4476787;32;20128;-79
2023/05/23 00:31:45;;;;;;;12.43;5.05;;;;;;;20.38;60.78;97810.66;4478517;32;20138;-79
2023/05/23 00:34:13;;;;;;;11.25;4.62;;;;;;;20.00;62.09;97808.72;4478816;32;20109;-79
2023/05/23 00:36:42;;;;;;;10.23;4.32;;;;;;;19.79;62.80;97811.34;4477932;32;20147;-79
2023/05/23 00:39:17;;;;;;;12.93;4.68;;;;;;;19.40;63.83;97803.19;4479127;32;20069;-79
2023/05/23 00:41:49;;;;;;;13.40;4.78;;;;;;;19.65;63.56;97805.47;4479623;32;20093;-79
2023/05/23 00:44:18;;;;;;;16.27;4.97;;;;;;;20.22;61.54;97804.13;4479058;32;20112;-79
2023/05/23 00:46:50;;;;;;;12.23;5.00;;;;;;;20.10;62.51;97804.34;4479330;32;20108;-79
2023/05/23 00:49:18;;;;;;;10.57;4.70;;;;;;;20.37;61.00;97798.53;4479496;32;20103;-79
2023/05/23 00:51:48;;;;;;;10.52;4.25;;;;;;;19.89;63.00;97797.38;4479097;32;20093;-79
2023/05/23 00:54:18;;;;;;;13.05;6.00;;;;;;;20.46;60.73;97795.12;4465106;32;20108;-79
2023/05/23 00:56:47;;;;;;;11.10;4.95;;;;;;;20.46;60.30;97797.75;4465000;32;20109;-79
2023/05/23 00:59:15;;;;;;;12.20;5.15;;;;;;;19.97;62.22;97794.06;4479033;32;20151;-79
2023/05/23 01:01:45;;;;;;;11.90;4.93;;;;;;;20.46;61.14;97790.72;4478391;32;20154;-79
2023/05/23 01:04:15;;;;;;;10.90;4.90;;;;;;;20.41;60.79;97787.62;4465145;32;20069;-79
2023/05/23 01:06:45;;;;;;;11.88;5.78;;;;;;;20.26;61.80;97788.97;4478141;32;20084;-79
2023/05/23 01:09:14;;;;;;;10.45;5.32;;;;;;;20.67;60.46;97784.56;4479287;32;20092;-79
2023/05/23 01:11:53;;;;;;;10.73;4.80;;;;;;;20.76;59.47;97791.63;4465311;32;20115;-79
2023/05/23 01:14:25;;;;;;;10.73;4.90;;;;;;;21.04;58.58;97788.19;4479484;32;20093;-79
2023/05/23 01:16:57;;;;;;;13.07;5.00;;;;;;;20.71;59.69;97788.56;4465278;32;20105;-79
2023/05/23 01:19:37;;;;;;;11.05;4.50;;;;;;;20.59;60.23;97784.41;4478292;32;20057;-79
2023/05/23 01:22:12;;;;;;;10.48;5.10;;;;;;;20.41;60.88;97782.37;4479252;32;20117;-79
2023/05/23 01:24:54;;;;;;;10.48;5.03;;;;;;;20.09;62.51;97782.53;4464834;32;20087;-81
2023/05/23 01:27:32;;;;;;;10.23;4.68;;;;;;;20.78;60.15;97779.22;4464590;32;20092;-79
2023/05/23 01:30:00;;;;;;;12.57;5.03;;;;;;;20.22;62.06;97777.09;4478893;32;20141;-79
2023/05/23 01:32:28;;;;;;;10.18;4.78;;;;;;;20.09;62.52;97785.16;4478142;32;20148;-79
2023/05/23 01:34:55;;;;;;;10.27;4.78;;;;;;;20.90;59.66;97780.75;4478606;32;20093;-79
2023/05/23 01:37:22;;;;;;;9.88;4.72;;;;;;;20.47;60.82;97781.06;4463749;32;20116;-79
2023/05/23 01:39:49;;;;;;;10.68;5.03;;;;;;;20.59;60.89;97774.75;4477151;32;20404;-79
2023/05/23 01:42:16;;;;;;;11.15;5.15;;;;;;;20.40;61.75;97774.66;4478271;32;20145;-78
2023/05/23 01:44:44;;;;;;;10.73;4.85;;;;;;;20.73;59.98;97776.16;4464732;32;20106;-78
2023/05/23 01:47:12;;;;;;;10.65;5.00;;;;;;;20.60;60.54;97772.97;4477882;32;20078;-79
2023/05/23 01:49:40;;;;;;;11.48;5.03;;;;;;;20.65;60.01;97776.84;4478302;32;20088;-79
2023/05/23 01:52:10;;;;;;;12.30;4.90;;;;;;;20.50;60.80;97773.75;4478509;32;20105;-78
2023/05/23 01:54:41;;;;;;;10.00;4.45;;;;;;;20.49;60.27;97764.25;4464431;32;20121;-79
2023/05/23 01:57:09;;;;;;;13.48;5.03;;;;;;;20.51;59.98;97770.19;4465013;32;20092;-79
2023/05/23 01:59:37;;;;;;;10.18;4.95;;;;;;;20.15;61.29;97758.47;4464175;32;20114;-78
2023/05/23 02:02:04;;;;;;;10.40;5.18;;;;;;;20.43;60.64;97767.41;4477686;32;20053;-78
2023/05/23 02:04:31;;;;;;;14.50;5.37;;;;;;;20.01;61.78;97766.69;4478523;32;20153;-78
2023/05/23 02:06:58;;;;;;;11.70;5.60;;;;;;;19.93;62.11;97758.66;4477962;32;20108;-79
2023/05/23 02:09:25;;;;;;;12.20;4.53;;;;;;;19.94;61.98;97766.38;4478399;32;20153;-78
2023/05/23 02:11:52;;;;;;;12.45;5.62;;;;;;;20.02;61.84;97770.97;4477902;32;20495;-78
2023/05/23 02:14:20;;;;;;;11.38;4.80;;;;;;;20.73;59.44;97763.88;4477142;32;20148;-79
2023/05/23 02:16:47;;;;;;;11.02;4.87;;;;;;;20.39;60.43;97763.34;4476512;32;20089;-78
2023/05/23 02:19:14;;;;;;;11.85;5.07;;;;;;;20.21;61.20;97763.19;4477109;32;20103;-78
2023/05/23 02:21:41;;;;;;;11.35;5.37;;;;;;;20.24;61.09;97759.47;4477031;32;20150;-78
2023/05/23 02:24:08;;;;;;;11.98;5.53;;;;;;;20.02;62.16;97759.66;4473081;32;20103;-78
2023/05/23 02:26:34;;;;;;;12.00;4.78;;;;;;;20.62;60.46;97764.00;4472557;32;20447;-77
2023/05/23 02:29:07;;;;;;;12.93;5.15;;;;;;;20.64;59.98;97762.09;4472334;32;20676;-78
2023/05/23 02:31:35;;;;;;;10.13;5.07;;;;;;;20.75;59.07;97764.59;4472557;32;20083;-78
2023/05/23 02:34:02;;;;;;;10.40;5.32;;;;;;;20.76;59.04;97765.41;4472566;32;20095;-78
2023/05/23 02:36:32;;;;;;;10.85;5.25;;;;;;;21.03;57.53;97755.06;4471986;32;20089;-78
2023/05/23 02:38:59;;;;;;;11.75;5.18;;;;;;;20.61;59.11;97764.12;4472255;32;20072;-78
2023/05/23 02:41:25;;;;;;;10.10;5.22;;;;;;;19.98;61.48;97761.69;4472336;32;20092;-78
2023/05/23 02:43:53;;;;;;;11.55;5.47;;;;;;;19.95;61.49;97767.19;4471810;32;20496;-78
2023/05/23 02:46:20;;;;;;;11.98;5.30;;;;;;;20.16;60.86;97767.97;4472274;32;20080;-78
2023/05/23 02:48:47;;;;;;;12.18;5.18;;;;;;;19.80;62.35;97768.50;4472110;32;20107;-78
2023/05/23 02:51:14;;;;;;;11.23;5.15;;;;;;;20.46;60.09;97767.16;4472934;32;20173;-78
2023/05/23 02:53:41;;;;;;;10.50;5.37;;;;;;;20.27;60.66;97767.03;4474548;32;20177;-78
2023/05/23 02:56:08;;;;;;;12.00;5.57;;;;;;;20.27;60.64;97759.19;4473985;32;20139;-78
2023/05/23 02:58:35;;;;;;;12.45;5.95;;;;;;;20.92;58.78;97755.19;4474275;32;20092;-78
2023/05/23 03:01:03;;;;;;;12.70;5.50;;;;;;;20.02;62.37;97751.81;4474324;32;20461;-78
2023/05/23 03:03:33;;;;;;;12.30;5.90;;;;;;;20.81;58.68;97752.72;4474011;32;20085;-78
2023/05/23 03:06:02;;;;;;;11.15;5.37;;;;;;;20.82;58.58;97748.28;4473999;32;20080;-78
2023/05/23 03:08:29;;;;;;;11.15;5.40;;;;;;;20.59;59.60;97751.16;4473944;32;20092;-78
2023/05/23 03:10:56;;;;;;;12.55;5.62;;;;;;;20.64;58.90;97756.03;4473919;32;20085;-78
2023/05/23 03:13:23;;;;;;;13.48;5.70;;;;;;;20.49;60.06;97750.31;4460199;32;20160;-78
2023/05/23 03:15:50;;;;;;;13.68;5.28;;;;;;;19.54;63.97;97750.53;4474295;32;20142;-78
2023/05/23 03:18:17;;;;;;;11.05;5.50;;;;;;;19.37;64.77;97743.28;4478581;32;20077;-79
2023/05/23 03:20:44;;;;;;;14.13;5.85;;;;;;;19.94;63.31;97742.81;4478869;32;20061;-79
2023/05/23 03:23:11;;;;;;;11.43;5.50;;;;;;;19.69;64.13;97743.25;4478569;32;20092;-79
2023/05/23 03:25:37;;;;;;;13.43;4.78;;;;;;;20.24;61.13;97746.38;4478207;32;20472;-79
2023/05/23 03:28:05;;;;;;;13.25;5.90;;;;;;;20.03;61.65;97750.84;4478912;32;20060;-79
2023/05/23 03:30:32;;;;;;;12.10;5.03;;;;;;;20.29;60.58;97746.78;4478992;32;20078;-79
2023/05/23 03:32:59;;;;;;;11.43;5.22;;;;;;;20.32;60.23;97750.94;4478701;32;20093;-78
2023/05/23 03:35:26;;;;;;;12.32;5.45;;;;;;;20.54;59.11;97747.31;4479138;32;20056;-78
2023/05/23 03:37:52;;;;;;;11.90;5.32;;;;;;;20.09;61.10;97747.66;4465151;32;20089;-78
2023/05/23 03:40:20;;;;;;;11.38;5.70;;;;;;;19.82;62.46;97743.03;4479146;32;20108;-79
2023/05/23 03:42:48;;;;;;;10.85;5.45;;;;;;;20.06;62.19;97740.91;4478772;32;20792;-78
2023/05/23 03:45:17;;;;;;;12.18;5.35;;;;;;;20.42;61.71;97741.31;4479194;32;20099;-79
2023/05/23 03:47:44;;;;;;;10.80;5.22;;;;;;;20.79;60.28;97734.50;4479054;32;20080;-79
2023/05/23 03:50:11;;;;;;;10.63;4.75;;;;;;;20.86;58.76;97737.41;4478764;32;20114;-79
2023/05/23 03:52:38;;;;;;;10.35;5.05;;;;;;;21.06;59.24;97733.00;4478868;32;20097;-79
2023/05/23 03:55:05;;;;;;;11.25;5.25;;;;;;;21.18;58.94;97739.75;4465795;32;20057;-79
2023/05/23 03:57:32;;;;;;;11.63;4.70;;;;;;;21.95;56.30;97742.22;4480558;32;20148;-79
2023/05/23 04:00:04;;;;;;;11.65;5.00;;;;;;;21.89;55.80;97739.34;4480590;32;20102;-79
2023/05/23 04:02:31;;;;;;;10.95;5.00;;;;;;;22.63;54.91;97746.34;4480484;32;20105;-79
2023/05/23 04:04:59;;;;;;;10.00;4.70;;;;;;;22.70;54.28;97750.88;4480647;32;20092;-79
2023/05/23 04:07:26;;;;;;;10.63;5.20;;;;;;;23.35;52.73;97745.37;4480414;32;20080;-79
2023/05/23 04:09:53;;;;;;;11.20;4.80;;;;;;;23.54;52.95;97742.56;4481833;32;20079;-79
2023/05/23 04:12:21;;;;;;;10.15;4.32;;;;;;;24.19;50.95;97742.12;4482643;32;20157;-79
2023/05/23 04:14:49;;;;;;;10.82;5.00;;;;;;;24.84;49.55;97750.28;4483075;32;20108;-80
2023/05/23 04:17:15;;;;;;;10.65;4.37;;;;;;;25.25;48.66;97747.69;4479741;32;20048;-80
2023/05/23 04:19:43;;;;;;;11.52;4.80;;;;;;;25.85;46.38;97739.41;4476768;32;20073;-80
2023/05/23 04:22:10;;;;;;;12.18;4.57;;;;;;;26.48;45.52;97744.66;4475868;32;20103;-80
2023/05/23 04:24:37;;;;;;;8.98;4.62;;;;;;;27.37;43.90;97740.59;4475745;32;20173;-80
2023/05/23 04:27:04;;;;;;;9.98;4.82;;;;;;;27.90;42.52;97751.22;4475784;32;20144;-80
2023/05/23 04:29:32;;;;;;;9.13;4.90;;;;;;;28.37;41.44;97744.72;4475152;32;20169;-80
2023/05/23 04:31:59;;;;;;;10.73;4.60;;;;;;;28.93;40.58;97748.47;4475266;32;20119;-80
2023/05/23 04:34:26;;;;;;;8.75;4.45;;;;;;;29.47;40.14;97745.28;4474614;32;20092;-81
2023/05/23 04:36:53;;;;;;;8.60;4.28;;;;;;;30.19;38.52;97741.47;4475096;32;20099;-81
2023/05/23 04:39:20;;;;;;;10.77;4.53;;;;;;;30.47;37.47;97747.56;4474570;32;20170;-81
2023/05/23 04:41:48;;;;;;;11.30;4.95;;;;;;;30.57;37.68;97741.03;4475346;32;20084;-81
2023/05/23 04:44:15;;;;;;;12.82;5.28;;;;;;;30.65;37.79;97741.72;4474978;32;20103;-81
2023/05/23 04:46:44;;;;;;;10.85;4.72;;;;;;;31.27;36.15;97745.16;4474507;32;20084;-81
2023/05/23 04:49:11;;;;;;;11.70;5.03;;;;;;;31.90;34.99;97740.19;4474029;32;20116;-81
2023/05/23 04:51:38;;;;;;;10.00;5.07;;;;;;;32.27;34.42;97744.00;4460291;32;20164;-81
2023/05/23 04:54:05;;;;;;;10.23;4.80;;;;;;;32.79;33.69;97744.81;4473722;32;20092;-81
2023/05/23 04:56:32;;;;;;;8.43;4.37;;;;;;;33.16;32.64;97747.69;4473300;32;20510;-81
2023/05/23 04:58:59;;;;;;;9.90;4.25;;;;;;;33.82;31.59;97739.97;4473167;32;20507;-81
2023/05/23 05:01:26;;;;;;;11.23;4.70;;;;;;;34.20;31.04;97747.00;4473542;32;20105;-81
2023/05/23 05:03:53;;;;;;;10.98;4.70;;;;;;;34.51;30.79;97746.03;4472666;32;20148;-81
2023/05/23 05:06:22;;;;;;;30.65;5.95;;;;;;;35.16;30.28;97748.88;4472593;32;20089;-81
2023/05/23 05:08:48;;;;;;;14.95;4.87;;;;;;;35.26;30.22;97754.47;4472441;32;20125;-81
2023/05/23 05:11:15;;;;;;;9.10;4.35;;;;;;;35.92;29.30;97750.72;4457864;32;20160;-81
2023/05/23 05:13:42;;;;;;;9.38;4.40;;;;;;;36.12;28.64;97757.59;4471579;32;20100;-81
2023/05/23 05:16:09;;;;;;;11.35;4.47;;;;;;;35.80;28.86;97749.88;4471843;32;20556;-81
2023/05/23 05:18:37;;;;;;;10.93;4.50;;;;;;;36.05;28.78;97757.75;4471832;32;20407;-81
2023/05/23 05:21:05;;;;;;;9.48;4.18;;;;;;;36.18;28.84;97754.78;4472385;32;20164;-81
2023/05/23 05:23:33;;;;;;;10.82;4.60;;;;;;;36.33;28.86;97754.28;4471912;32;20637;-82
2023/05/23 05:25:59;;;;;;;9.10;4.28;;;;;;;36.46;29.24;97751.34;4472177;32;20148;-82
2023/05/23 05:28:26;;;;;;;12.20;4.65;;;;;;;36.84;28.65;97757.22;4457846;32;20153;-82
2023/05/23 05:30:53;;;;;;;11.18;4.85;;;;;;;37.11;28.80;97760.91;4471873;32;20116;-81
2023/05/23 05:33:24;;;;;;;18.83;4.97;;;;;;;36.23;29.39;97754.06;4472049;32;20103;-81
2023/05/23 05:35:51;;;;;;;9.05;4.65;;;;;;;36.22;29.58;97755.13;4471929;32;20077;-81
2023/05/23 05:38:18;;;;;;;8.50;4.37;;;;;;;35.47;30.90;97758.50;4471188;32;20148;-81
2023/05/23 05:40:45;;;;;;;10.77;4.87;;;;;;;35.70;29.91;97755.03;4471803;32;20194;-81
2023/05/23 05:43:12;;;;;;;10.55;5.00;;;;;;;35.30;30.63;97749.47;4471602;32;20193;-81
2023/05/23 05:45:39;;;;;;;9.15;4.20;;;;;;;35.14;31.02;97748.28;4471196;32;20561;-81
2023/05/23 05:48:07;;;;;;;8.95;4.50;;;;;;;35.99;30.45;97755.16;4471471;32;20142;-81
2023/05/23 05:50:34;;;;;;;7.68;4.20;;;;;;;36.44;29.98;97756.16;4471526;32;20099;-81
2023/05/23 05:53:00;;;;;;;10.38;4.55;;;;;;;36.23;30.11;97751.38;4472595;32;20097;-81
2023/05/23 05:55:27;;;;;;;10.75;4.68;;;;;;;36.27;30.49;97760.63;4471405;32;20080;-81
2023/05/23 05:57:54;;;;;;;8.43;4.47;;;;;;;36.41;29.78;97750.44;4457437;32;20704;-81
2023/05/23 06:00:25;;;;;;;8.45;4.62;;;;;;;35.27;31.41;97756.12;4467414;32;20113;-81
2023/05/23 06:02:58;;;;;;;10.65;4.72;;;;;;;34.43;32.68;97747.16;4470234;32;20641;-82
2023/05/23 06:05:28;;;;;;;9.80;5.18;;;;;;;34.66;32.12;97738.41;4470625;32;20673;-82
2023/05/23 06:07:55;;;;;;;10.35;5.20;;;;;;;34.22;33.29;97745.72;4471130;32;20106;-81
2023/05/23 06:10:23;;;;;;;9.63;5.10;;;;;;;34.12;33.38;97747.28;4470394;32;20120;-81
2023/05/23 06:12:50;;;;;;;9.77;4.78;;;;;;;34.45;32.50;97752.28;4470000;32;20096;-81
2023/05/23 06:15:17;;;;;;;8.70;4.75;;;;;;;34.97;32.25;97747.28;4470319;32;20072;-81
2023/05/23 06:17:44;;;;;;;9.35;5.20;;;;;;;34.88;31.82;97754.00;4470459;32;20105;-81
2023/05/23 06:20:11;;;;;;;8.90;4.68;;;;;;;34.51;32.56;97743.38;4455315;32;20127;-80
2023/05/23 06:22:39;;;;;;;10.45;4.95;;;;;;;34.82;30.77;97747.69;4470532;32;20122;-80
2023/05/23 06:25:06;;;;;;;11.07;4.87;;;;;;;34.70;31.60;97750.31;4470500;32;20136;-80
2023/05/23 06:27:33;;;;;;;8.70;4.80;;;;;;;34.29;30.93;97744.84;4471747;32;20081;-80
2023/05/23 06:30:00;;;;;;;11.15;4.35;;;;;;;34.30;30.72;97741.94;4457485;32;20486;-80
2023/05/23 06:32:27;;;;;;;9.43;5.05;;;;;;;34.28;30.26;97749.38;4471863;32;20602;-80
2023/05/23 06:34:54;;;;;;;12.13;4.75;;;;;;;34.30;30.30;97749.97;4472118;32;20524;-81
2023/05/23 06:37:21;;;;;;;9.98;4.78;;;;;;;34.15;31.41;97745.00;4473905;32;20112;-81
2023/05/23 06:39:48;;;;;;;8.43;4.53;;;;;;;34.12;32.09;97745.44;4473795;32;20109;-87
2023/05/23 06:42:15;;;;;;;10.32;5.22;;;;;;;34.20;30.18;97739.78;4472703;32;20084;-87
2023/05/23 06:44:42;;;;;;;11.77;5.12;;;;;;;33.63;32.28;97743.66;4458695;32;20473;-88
2023/05/23 06:47:09;;;;;;;9.55;4.60;;;;;;;33.47;32.12;97745.00;4472574;32;20748;-87
2023/05/23 06:49:36;;;;;;;7.90;4.45;;;;;;;33.51;31.31;97737.37;4471963;32;20088;-86
2023/05/23 06:52:03;;;;;;;8.68;4.80;;;;;;;33.49;32.13;97745.59;4472465;32;20124;-86
2023/05/23 06:54:30;;;;;;;9.48;4.65;;;;;;;33.84;30.62;97742.41;4472434;32;20103;-87
2023/05/23 06:56:58;;;;;;;10.32;4.70;;;;;;;32.47;31.14;97747.44;4471957;32;20107;-85
2023/05/23 06:59:27;;;;;;;10.13;5.40;;;;;;;32.40;33.57;97746.63;4471426;32;20096;-86
2023/05/23 07:01:54;;;;;;;11.82;4.82;;;;;;;32.99;32.68;97744.75;4471767;32;20089;-85
2023/05/23 07:04:21;;;;;;;10.35;4.95;;;;;;;33.25;30.94;97746.38;4472261;32;20689;-85
2023/05/23 07:06:49;;;;;;;9.68;4.68;;;;;;;32.72;32.24;97744.03;4471864;32;20156;-85
2023/05/23 07:09:16;;;;;;;8.85;4.62;;;;;;;32.59;32.29;97736.09;4471212;32;20128;-85
2023/05/23 07:11:45;;;;;;;10.95;4.68;;;;;;;32.32;33.16;97732.69;4471840;32;20108;-84
2023/05/23 07:14:12;;;;;;;10.68;4.35;;;;;;;32.59;31.84;97730.75;4471898;32;20122;-85
2023/05/23 07:16:39;;;;;;;9.35;4.60;;;;;;;32.77;31.42;97729.00;4471867;32;20131;-84
2023/05/23 07:19:06;;;;;;;10.95;4.93;;;;;;;32.68;32.02;97734.81;4471261;32;20169;-83
2023/05/23 07:21:33;;;;;;;10.85;4.70;;;;;;;32.95;31.24;97730.97;4472172;32;20081;-83
2023/05/23 07:24:00;;;;;;;10.73;5.03;;;;;;;33.08;32.03;97728.22;4471391;32;20088;-84
2023/05/23 07:26:27;;;;;;;13.15;4.72;;;;;;;33.12;31.39;97733.94;4471882;32;20154;-84
2023/05/23 07:28:54;;;;;;;9.95;4.62;;;;;;;33.14;31.38;97734.53;4471112;32;20136;-84
2023/05/23 07:31:21;;;;;;;10.27;5.05;;;;;;;33.01;31.75;97730.13;4471671;32;20088;-84
2023/05/23 07:33:48;;;;;;;9.90;5.00;;;;;;;32.89;32.78;97728.34;4471564;32;20092;-84
2023/05/23 07:36:21;;;;;;;11.40;5.30;;;;;;;32.85;32.61;97730.63;4472062;32;20084;-84
2023/05/23 07:38:48;;;;;;;9.55;4.87;;;;;;;32.52;33.64;97726.25;4471014;32;20160;-83
2023/05/23 07:41:15;;;;;;;10.98;4.53;;;;;;;32.55;33.91;97724.22;4457955;32;20104;-84
2023/05/23 07:43:42;;;;;;;10.38;5.18;;;;;;;32.77;35.33;97736.22;4471291;32;20152;-83
2023/05/23 07:46:09;;;;;;;8.48;4.78;;;;;;;32.97;34.55;97730.78;4471820;32;20103;-83
2023/05/23 07:48:35;;;;;;;8.82;4.75;;;;;;;33.14;33.28;97734.53;4471048;32;20166;-82
2023/05/23 07:51:03;;;;;;;10.68;4.78;;;;;;;32.97;33.06;97728.09;4472167;32;20089;-83
2023/05/23 07:53:29;;;;;;;9.60;4.65;;;;;;;32.95;32.59;97730.16;4472974;32;20076;-83
2023/05/23 07:55:56;;;;;;;8.95;4.72;;;;;;;33.77;32.38;97728.28;4472342;32;20137;-84
2023/05/23 07:58:25;;;;;;;9.55;4.80;;;;;;;33.03;33.87;97736.06;4472029;32;20119;-83
2023/05/23 08:00:52;;;;;;;10.00;5.00;;;;;;;32.58;33.48;97729.94;4475567;32;20103;-84
2023/05/23 08:03:19;;;;;;;9.10;4.57;;;;;;;32.32;33.95;97733.53;4471915;32;20202;-83
2023/05/23 08:05:46;;;;;;;10.90;5.25;;;;;;;31.19;33.76;97724.00;4471932;32;20136;-84
2023/05/23 08:08:13;;;;;;;9.48;5.25;;;;;;;31.72;35.47;97727.47;4471461;32;20088;-83
2023/05/23 08:10:40;;;;;;;11.63;4.90;;;;;;;32.44;35.85;97729.19;4471971;32;20080;-83
2023/05/23 08:13:08;;;;;;;10.13;4.82;;;;;;;32.99;34.72;97732.19;4472311;32;20115;-83
2023/05/23 08:15:36;;;;;;;8.82;4.97;;;;;;;33.08;33.39;97738.09;4472549;32;20101;-84
2023/05/23 08:18:03;;;;;;;9.60;5.05;;;;;;;32.63;32.97;97735.44;4471877;32;20379;-83
2023/05/23 08:20:31;;;;;;;10.45;5.00;;;;;;;32.42;32.53;97733.06;4455994;32;20091;-83
2023/05/23 08:23:01;;;;;;;12.85;5.00;;;;;;;31.98;34.22;97726.62;4470453;32;20457;-83
2023/05/23 08:25:31;;;;;;;10.88;4.85;;;;;;;32.01;33.44;97731.56;4470289;32;20160;-83
2023/05/23 08:27:59;;;;;;;9.52;4.85;;;;;;;32.01;33.75;97726.22;4469948;32;20089;-83
2023/05/23 08:30:27;;;;;;;10.45;4.95;;;;;;;31.91;34.82;97736.50;4470293;32;20088;-82
2023/05/23 08:32:55;;;;;;;10.63;4.80;;;;;;;30.90;36.91;97726.00;4469917;32;20123;-83
2023/05/23 08:35:23;;;;;;;14.35;5.82;;;;;;;31.17;34.57;97728.72;4471854;32;20486;-82
2023/05/23 08:37:50;;;;;;;10.23;5.40;;;;;;;30.93;34.96;97738.09;4471954;32;20149;-82
2023/05/23 08:40:22;;;;;;;9.48;5.32;;;;;;;30.81;35.04;97737.84;4471699;32;20092;-82
2023/05/23 08:42:50;;;;;;;9.88;5.28;;;;;;;30.72;36.36;97737.22;4472148;32;20096;-83
2023/05/23 08:45:17;;;;;;;9.63;5.10;;;;;;;31.27;35.17;97732.63;4471975;32;20115;-83
2023/05/23 08:47:45;;;;;;;9.48;5.20;;;;;;;31.75;35.07;97734.28;4471415;32;20568;-83
2023/05/23 08:50:14;;;;;;;9.88;5.07;;;;;;;31.72;34.54;97742.66;4471309;32;20438;-83
2023/05/23 08:52:49;;;;;;;10.27;4.87;;;;;;;32.32;34.68;97740.72;4472073;32;20103;-83
2023/05/23 08:55:16;;;;;;;10.35;5.10;;;;;;;32.06;33.09;97731.75;4457680;32;20096;-83
2023/05/23 08:57:44;;;;;;;11.18;5.10;;;;;;;31.89;32.97;97734.03;4471956;32;20097;-83
2023/05/23 09:00:13;;;;;;;10.48;5.00;;;;;;;32.08;32.22;97734.19;4471677;32;20111;-83
2023/05/23 09:02:42;;;;;;;10.05;5.28;;;;;;;32.07;31.78;97740.56;4471678;32;20669;-83
2023/05/23 09:05:10;;;;;;;12.23;4.87;;;;;;;33.02;33.00;97736.28;4471937;32;20117;-83
2023/05/23 09:07:37;;;;;;;10.20;5.43;;;;;;;32.82;31.88;97747.06;4471826;32;20110;-83
2023/05/23 09:10:06;;;;;;;9.45;5.10;;;;;;;32.57;32.59;97746.16;4471310;32;20106;-82
2023/05/23 09:12:36;;;;;;;9.50;5.10;;;;;;;32.39;32.12;97736.19;4471867;32;20072;-82
2023/05/23 09:15:09;;;;;;;12.18;4.93;;;;;;;33.13;31.56;97740.09;4471396;32;20203;-82
2023/05/23 09:17:39;;;;;;;10.13;5.00;;;;;;;33.02;31.85;97741.62;4471963;32;20096;-83
2023/05/23 09:20:13;;;;;;;9.65;4.57;;;;;;;33.19;31.64;97734.72;4471586;32;20103;-83
2023/05/23 09:22:45;;;;;;;9.45;4.95;;;;;;;33.18;31.98;97737.59;4471452;32;20156;-83
2023/05/23 09:25:12;;;;;;;9.95;4.82;;;;;;;33.16;30.90;97737.81;4471868;32;20115;-83
2023/05/23 09:27:39;;;;;;;8.82;4.70;;;;;;;32.76;31.09;97735.38;4471677;32;20100;-83
2023/05/23 09:30:10;;;;;;;11.27;5.00;;;;;;;32.67;31.48;97731.31;4471115;32;20163;-83
2023/05/23 09:32:38;;;;;;;11.95;5.47;;;;;;;32.67;31.67;97735.84;4471805;32;20103;-83
2023/05/23 09:35:06;;;;;;;10.10;4.85;;;;;;;32.60;32.06;97735.88;4471554;32;20097;-83
2023/05/23 09:37:35;;;;;;;9.68;4.97;;;;;;;32.55;32.14;97741.03;4457207;32;20125;-83
2023/05/23 09:40:09;;;;;;;10.32;5.45;;;;;;;32.50;32.21;97738.19;4471390;32;20089;-83
2023/05/23 09:42:44;;;;;;;9.55;5.10;;;;;;;32.55;31.97;97732.22;4471704;32;20103;-83
2023/05/23 09:45:15;;;;;;;12.20;5.30;;;;;;;32.21;33.48;97732.28;4471403;32;20535;-83
2023/05/23 09:47:52;;;;;;;10.95;4.53;;;;;;;32.49;32.39;97732.03;4471486;32;20146;-83
2023/05/23 09:50:20;;;;;;;10.25;5.10;;;;;;;33.22;30.40;97736.97;4457076;32;20375;-83
2023/05/23 09:52:47;;;;;;;11.52;5.00;;;;;;;32.57;32.27;97738.97;4471498;32;20076;-83
2023/05/23 09:55:14;;;;;;;10.40;4.97;;;;;;;32.88;30.62;97735.56;4471537;32;20093;-83
2023/05/23 09:57:42;;;;;;;10.52;4.93;;;;;;;32.96;31.11;97729.09;4471120;32;20115;-83
2023/05/23 10:00:13;;;;;;;10.80;5.00;;;;;;;32.97;33.17;97731.59;4456906;32;20103;-83
2023/05/23 10:02:59;;;;;;;9.98;4.93;;;;;;;33.37;31.81;97726.78;4471646;32;20057;-85
2023/05/23 10:05:29;;;;;;;8.57;5.00;;;;;;;33.25;30.86;97730.34;4471049;32;20105;-85
2023/05/23 10:08:00;;;;;;;9.20;4.70;;;;;;;33.19;30.91;97723.22;4457285;32;20145;-85
2023/05/23 10:10:30;;;;;;;9.98;4.62;;;;;;;32.66;33.55;97720.84;4471289;32;20111;-85
2023/05/23 10:13:00;;;;;;;9.52;4.90;;;;;;;32.49;32.45;97721.34;4457071;32;20114;-85
2023/05/23 10:15:30;;;;;;;12.02;4.90;;;;;;;32.48;30.64;97718.88;4454315;32;20135;-86
2023/05/23 10:18:17;;;;;;;10.55;4.78;;;;;;;32.42;33.08;97720.53;4454267;32;20164;-85
2023/05/23 10:20:47;;;;;;;;;;;;;;;32.86;31.87;97718.06;4454866;32;20093;-86
2023/05/23 10:23:14;;;;;;;8.82;4.45;;;;;;;32.90;32.72;97716.63;4454515;32;20027;-86
2023/05/23 10:25:43;;;;;;;9.10;4.50;;;;;;;33.34;29.17;97711.16;4453845;32;20168;-85
2023/05/23 10:28:11;;;;;;;9.13;4.68;;;;;;;32.78;29.69;97711.94;4455315;32;20518;-86
2023/05/23 10:30:38;;;;;;;10.15;4.78;;;;;;;32.79;29.91;97708.22;4441558;32;20107;-86
2023/05/23 10:33:07;;;;;;;8.98;4.62;;;;;;;33.03;32.37;97714.69;4455043;32;20097;-85
2023/05/23 10:35:37;;;;;;;9.52;4.97;;;;;;;33.42;29.66;97709.28;4455366;32;20097;-85
2023/05/23 10:38:17;;;;;;;13.38;4.93;;;;;;;33.41;30.38;97702.28;4455338;32;20085;-87
2023/05/23 10:41:04;;;;;;;11.10;4.95;;;;;;;32.98;30.99;97701.16;4453799;32;20093;-88
2023/05/23 10:43:46;;;;;;;;;;;;;;;32.81;31.37;97700.81;4455602;32;20103;-86
2023/05/23 10:46:14;;;;;;;10.95;5.05;;;;;;;32.63;29.97;97689.22;4453898;32;20032;-86
2023/05/23 10:48:43;;;;;;;10.88;4.97;;;;;;;32.16;32.45;97692.09;4453797;32;20100;-86
2023/05/23 10:51:11;;;;;;;9.40;4.60;;;;;;;31.94;31.37;97688.88;4455109;32;20152;-86
2023/05/23 10:53:40;;;;;;;10.52;5.10;;;;;;;33.05;30.43;97698.41;4454767;32;20133;-86
2023/05/23 10:56:09;;;;;;;9.70;4.55;;;;;;;32.50;31.52;97698.13;4455133;32;20113;-86
2023/05/23 10:58:38;;;;;;;10.77;4.95;;;;;;;33.40;29.22;97681.94;4454954;32;20144;-86
2023/05/23 11:01:07;;;;;;;9.23;4.60;;;;;;;32.50;31.07;97700.78;4454633;32;20164;-86
2023/05/23 11:03:45;;;;;;;9.13;4.65;;;;;;;32.29;32.77;97685.91;4454938;32;20453;-86
2023/05/23 11:06:37;;;;;;;9.90;5.25;;;;;;;32.87;31.76;97683.16;4455025;32;20141;-83
2023/05/23 11:09:05;;;;;;;12.95;4.68;;;;;;;33.18;30.75;97679.62;4454255;32;20507;-84
2023/05/23 11:11:53;;;;;;;11.63;4.62;;;;;;;32.67;31.06;97683.25;4453821;32;20092;-84
2023/05/23 11:14:39;;;;;;;13.60;4.80;;;;;;;33.09;30.75;97670.25;4455465;32;20170;-85
2023/05/23 11:17:12;;;;;;;10.70;4.47;;;;;;;32.98;30.46;97673.63;4457028;32;20101;-83
2023/05/23 11:19:40;;;;;;;11.63;4.62;;;;;;;33.60;28.67;97666.50;4458195;32;20116;-84
2023/05/23 11:22:08;;;;;;;8.38;4.45;;;;;;;33.10;30.17;97669.19;4455588;32;20111;-84
2023/05/23 11:24:51;;;;;;;8.68;4.53;;;;;;;32.81;31.25;97668.75;4457090;32;20120;-84
2023/05/23 11:27:30;;;;;;;8.60;4.62;;;;;;;32.53;31.40;97665.66;4457083;32;20585;-84
2023/05/23 11:29:59;;;;;;;9.45;4.22;;;;;;;33.03;29.49;97655.06;4456551;32;20148;-84
2023/05/23 11:32:30;;;;;;;9.60;4.25;;;;;;;32.93;28.79;97649.38;4457037;32;20152;-84
2023/05/23 11:35:01;;;;;;;10.43;4.28;;;;;;;32.55;29.92;97663.59;4457011;32;20108;-84
2023/05/23 11:37:29;;;;;;;9.52;4.55;;;;;;;33.45;27.75;97642.78;4456635;32;20101;-84